Time;durP1;ratioP1;P1;durP2;ratioP2;P2;SDS_P1;SDS_P2;PMS_P1;PMS_P2;Temp;Humidity;BMP_temperature;BMP_pressure;BME280_temperature;BME280_humidity;BME280_pressure;Samples;Min_cycle;Max_cycle;Signal;HPM_P1;HPM_P2
2022/03/18 00:02:04;;;;;;;;;;;;;;;19.76;41.00;102834.31;4403461;32;19958;-70
2022/03/18 00:04:30;;;;;;;;;;;;;;;19.84;40.83;102841.41;4419838;32;20193;-70
2022/03/18 00:06:55;;;;;;;;;;;;;;;19.86;40.66;102847.47;4415314;32;20001;-70
2022/03/18 00:09:21;;;;;;;;;;;;;;;19.88;40.62;102858.47;4416236;32;19985;-70
2022/03/18 00:11:47;;;;;;;;;;;;;;;19.99;40.34;102853.22;4417396;32;19993;-70
2022/03/18 00:14:14;;;;;;;;;;;;;;;19.98;40.15;102860.19;4417049;32;19977;-70
2022/03/18 00:16:40;;;;;;;;;;;;;;;19.96;40.15;102872.09;4417607;32;19950;-70
2022/03/18 00:19:06;;;;;;;;;;;;;;;19.75;40.45;102873.50;4406199;32;19979;-70
2022/03/18 00:21:32;;;;;;;;;;;;;;;19.78;40.59;102883.22;4416792;32;19972;-70
2022/03/18 00:23:58;;;;;;;;;;;;;;;19.52;40.78;102876.56;4416217;32;20498;-70
2022/03/18 00:26:23;;;;;;;;;;;;;;;19.38;41.02;102876.16;4419420;32;20005;-70
2022/03/18 00:28:49;;;;;;;;;;;;;;;19.37;41.08;102883.13;4413700;32;19980;-70
2022/03/18 00:31:15;;;;;;;;;;;;;;;19.17;41.30;102882.38;4416756;32;20023;-70
2022/03/18 00:33:41;;;;;;;;;;;;;;;19.14;41.57;102897.56;4417441;32;20465;-70
2022/03/18 00:36:06;;;;;;;;;;;;;;;18.95;41.73;102896.41;4418472;32;20287;-70
2022/03/18 00:38:33;;;;;;;;;;;;;;;18.85;41.87;102899.53;4415192;32;20386;-70
2022/03/18 00:41:00;;;;;;;;;;;;;;;18.77;42.09;102898.88;4413989;32;20005;-70
2022/03/18 00:43:25;;;;;;;;;;;;;;;18.61;42.33;102903.75;4417450;32;19964;-70
2022/03/18 00:45:51;;;;;;;;;;;;;;;18.24;42.94;102904.97;4416730;32;19989;-70
2022/03/18 00:53:53;;;;;;;;;;;;;;;17.99;43.67;102920.97;4414766;32;19997;-70
2022/03/18 00:56:18;;;;;;;;;;;;;;;17.86;43.99;102933.00;4418045;32;20322;-69
2022/03/18 00:58:44;;;;;;;;;;;;;;;17.82;44.05;102932.28;4413000;32;20067;-69
2022/03/18 01:01:10;;;;;;;;;;;;;;;17.74;44.00;102932.84;4419987;32;19959;-70
2022/03/18 01:03:36;;;;;;;;;;;;;;;17.74;43.80;102936.47;4417021;32;20010;-70
2022/03/18 01:06:02;;;;;;;;;;;;;;;17.66;43.93;102932.19;4417843;32;20367;-70
2022/03/18 01:08:27;;;;;;;;;;;;;;;17.62;44.04;102936.31;4416223;32;19982;-69
2022/03/18 01:10:53;;;;;;;;;;;;;;;17.49;44.29;102923.97;4416726;32;20420;-69
2022/03/18 01:13:20;;;;;;;;;;;;;;;17.19;44.72;102929.72;4417851;32;20014;-70
2022/03/18 01:15:45;;;;;;;;;;;;;;;17.16;44.87;102931.41;4415237;32;19993;-70
2022/03/18 01:18:11;;;;;;;;;;;;;;;17.03;44.67;102938.91;4418722;32;20052;-70
2022/03/18 01:20:37;;;;;;;;;;;;;;;16.72;45.60;102939.41;4417429;32;20066;-69
2022/03/18 01:23:06;;;;;;;;;;;;;;;16.84;45.41;102942.47;4415268;32;19972;-69
2022/03/18 01:25:33;;;;;;;;;;;;;;;17.03;44.89;102949.50;4415969;32;20413;-69
2022/03/18 01:28:01;;;;;;;;;;;;;;;16.75;45.35;102956.41;4418337;32;20048;-69
2022/03/18 01:30:29;;;;;;;;;;;;;;;16.79;45.51;102954.34;4415842;32;19998;-69
2022/03/18 01:32:55;;;;;;;;;;;;;;;16.80;45.22;102961.63;4417899;32;19998;-69
2022/03/18 01:35:21;;;;;;;;;;;;;;;16.71;45.37;102964.19;4419223;32;20394;-69
2022/03/18 01:37:47;;;;;;;;;;;;;;;16.76;45.06;102958.03;4417226;32;19957;-69
2022/03/18 01:40:13;;;;;;;;;;;;;;;16.66;45.38;102958.19;4414747;32;19961;-69
2022/03/18 01:42:39;;;;;;;;;;;;;;;16.48;45.48;102966.97;4415895;32;20328;-69
2022/03/18 01:45:05;;;;;;;;;;;;;;;16.36;45.52;102970.34;4417138;32;20084;-69
2022/03/18 01:47:31;;;;;;;;;;;;;;;16.48;45.40;102975.50;4416297;32;20024;-69
2022/03/18 01:49:58;;;;;;;;;;;;;;;16.39;45.56;102983.69;4417595;32;19957;-69
2022/03/18 01:52:24;;;;;;;;;;;;;;;16.35;45.62;102987.81;4415619;32;20361;-69
2022/03/18 01:54:50;;;;;;;;;;;;;;;16.32;45.72;102989.44;4416235;32;19998;-69
2022/03/18 01:57:17;;;;;;;;;;;;;;;16.25;45.78;102994.41;4417635;32;20248;-69
2022/03/18 01:59:42;;;;;;;;;;;;;;;16.28;45.40;102999.25;4415659;32;19958;-69
2022/03/18 02:02:08;;;;;;;;;;;;;;;16.26;45.49;102991.12;4415693;32;19967;-69
2022/03/18 02:04:36;;;;;;;;;;;;;;;16.32;45.00;103000.03;4416498;32;20041;-69
2022/03/18 02:07:02;;;;;;;;;;;;;;;16.35;44.95;102999.97;4414228;32;19953;-69
2022/03/18 02:09:29;;;;;;;;;;;;;;;16.28;45.22;102999.25;4414194;32;19969;-69
2022/03/18 02:11:55;;;;;;;;;;;;;;;16.13;45.80;102995.75;4418255;32;19953;-69
2022/03/18 02:17:12;;;;;;;;;;;;;;;16.40;45.46;103004.38;3951710;32;15724518;-70
2022/03/18 02:19:39;;;;;;;;;;;;;;;16.40;45.46;103004.38;4429078;32;19965;-70
2022/03/18 02:22:11;;;;;;;;;;;;;;;15.89;45.89;103008.19;4430345;32;19993;-70
2022/03/18 02:24:37;;;;;;;;;;;;;;;15.86;46.12;103012.69;4425819;32;20016;-70
2022/03/18 02:27:03;;;;;;;;;;;;;;;15.61;46.63;103012.09;4433129;32;19961;-70
2022/03/18 02:29:29;;;;;;;;;;;;;;;15.76;46.19;103007.91;4428884;32;20329;-70
2022/03/18 02:31:55;;;;;;;;;;;;;;;15.67;46.42;103006.78;4432106;32;20384;-70
2022/03/18 02:34:22;;;;;;;;;;;;;;;15.54;46.52;103009.34;4429992;32;20369;-70
2022/03/18 02:36:49;;;;;;;;;;;;;;;15.55;46.35;103001.59;4430021;32;19961;-70
2022/03/18 02:39:14;;;;;;;;;;;;;;;15.59;46.00;103010.91;4429910;32;20031;-70
2022/03/18 02:41:40;;;;;;;;;;;;;;;15.56;46.00;103018.22;4428311;32;20062;-70
2022/03/18 02:44:06;;;;;;;;;;;;;;;15.46;46.16;103010.59;4428651;32;20328;-70
2022/03/18 02:46:32;;;;;;;;;;;;;;;15.58;46.06;103018.62;4414367;32;20347;-70
2022/03/18 02:49:02;;;;;;;;;;;;;;;15.58;45.97;103029.97;4430808;32;19957;-70
2022/03/18 02:51:28;;;;;;;;;;;;;;;15.51;46.05;103024.38;4431708;32;19958;-70
2022/03/18 02:53:54;;;;;;;;;;;;;;;15.40;46.29;103025.69;4430094;32;19999;-70
2022/03/18 02:56:20;;;;;;;;;;;;;;;15.28;46.05;103029.75;4433325;32;20265;-70
2022/03/18 02:58:48;;;;;;;;;;;;;;;15.29;46.46;103036.25;4430672;32;19993;-70
2022/03/18 03:01:14;;;;;;;;;;;;;;;15.25;46.23;103038.31;4429639;32;21107;-70
2022/03/18 03:03:40;;;;;;;;;;;;;;;15.30;45.83;103054.88;4430558;32;19957;-70
2022/03/18 03:08:51;;;;;;;;;;;;;;;15.13;45.66;103050.16;4428277;32;19994;-70
2022/03/18 03:11:16;;;;;;;;;;;;;;;15.14;45.93;103055.41;4428883;32;20001;-70
2022/03/18 03:13:42;;;;;;;;;;;;;;;15.16;45.70;103058.62;4427794;32;19992;-70
2022/03/18 03:16:08;;;;;;;;;;;;;;;15.05;45.65;103054.22;4428695;32;20004;-70
2022/03/18 03:18:34;;;;;;;;;;;;;;;14.97;45.88;103066.84;4430184;32;19945;-70
2022/03/18 03:20:59;;;;;;;;;;;;;;;14.88;46.14;103070.13;4430829;32;19993;-70
2022/03/18 03:23:25;;;;;;;;;;;;;;;15.06;45.97;103070.03;4431332;32;19965;-70
2022/03/18 03:25:53;;;;;;;;;;;;;;;14.87;46.20;103065.66;4433000;32;19993;-70
2022/03/18 03:28:19;;;;;;;;;;;;;;;14.87;46.18;103067.69;4421333;32;20001;-69
2022/03/18 03:30:45;;;;;;;;;;;;;;;14.90;46.08;103067.69;4417592;32;20028;-69
2022/03/18 03:33:11;;;;;;;;;;;;;;;14.94;45.73;103081.84;4415759;32;20608;-70
2022/03/18 03:35:38;;;;;;;;;;;;;;;14.88;45.71;103075.00;4419200;32;20285;-70
2022/03/18 03:38:04;;;;;;;;;;;;;;;14.72;46.13;103080.31;4418681;32;19993;-70
2022/03/18 03:40:30;;;;;;;;;;;;;;;14.70;46.04;103080.72;4418805;32;20004;-70
2022/03/18 03:42:55;;;;;;;;;;;;;;;14.54;46.17;103093.75;4419887;32;20382;-70
2022/03/18 03:45:22;;;;;;;;;;;;;;;14.53;46.06;103095.78;4420998;32;20685;-70
2022/03/18 03:47:48;;;;;;;;;;;;;;;14.58;46.01;103103.88;4420151;32;20154;-70
2022/03/18 03:50:14;;;;;;;;;;;;;;;14.71;45.45;103099.38;4416320;32;20028;-70
2022/03/18 03:52:40;;;;;;;;;;;;;;;14.63;45.70;103113.97;4419330;32;20005;-70
2022/03/18 03:55:07;;;;;;;;;;;;;;;14.44;46.18;103111.56;4415009;32;19953;-70
2022/03/18 03:57:33;;;;;;;;;;;;;;;14.50;45.97;103112.78;4415384;32;19957;-70
2022/03/18 03:59:58;;;;;;;;;;;;;;;14.57;45.75;103118.44;4418442;32;20009;-70
2022/03/18 04:02:27;;;;;;;;;;;;;;;14.76;45.67;103118.75;4415871;32;20278;-70
2022/03/18 04:04:53;;;;;;;;;;;;;;;14.62;45.78;103109.50;4420146;32;19964;-70
2022/03/18 04:07:19;;;;;;;;;;;;;;;14.53;46.11;103114.78;4418139;32;20089;-70
2022/03/18 04:09:47;;;;;;;;;;;;;;;14.61;45.72;103130.56;4417185;32;20390;-70
2022/03/18 04:12:13;;;;;;;;;;;;;;;14.49;45.69;103133.84;4418843;32;19989;-70
2022/03/18 04:14:39;;;;;;;;;;;;;;;14.37;45.69;103139.94;4419484;32;20682;-70
2022/03/18 04:17:05;;;;;;;;;;;;;;;14.33;45.37;103142.75;4417652;32;20445;-70
2022/03/18 04:19:30;;;;;;;;;;;;;;;14.39;45.40;103151.66;4420046;32;20115;-70
2022/03/18 04:21:57;;;;;;;;;;;;;;;14.40;45.41;103145.59;4419465;32;19985;-70
2022/03/18 04:24:23;;;;;;;;;;;;;;;14.40;45.49;103139.09;4416619;32;19976;-70
2022/03/18 04:26:48;;;;;;;;;;;;;;;14.44;45.50;103137.88;4418089;32;19945;-70
2022/03/18 04:29:14;;;;;;;;;;;;;;;14.38;45.53;103136.69;4416954;32;20355;-70
2022/03/18 04:31:39;;;;;;;;;;;;;;;14.17;45.80;103144.38;4418241;32;19977;-69
2022/03/18 04:34:05;;;;;;;;;;;;;;;14.33;45.81;103145.59;4420769;32;20005;-69
2022/03/18 04:36:31;;;;;;;;;;;;;;;14.26;45.93;103156.94;4418069;32;20391;-70
2022/03/18 04:38:57;;;;;;;;;;;;;;;14.33;45.62;103154.09;4418149;32;20008;-70
2022/03/18 04:41:22;;;;;;;;;;;;;;;14.30;45.60;103159.78;4417367;32;20012;-70
2022/03/18 04:43:48;;;;;;;;;;;;;;;14.06;45.95;103169.88;4417216;32;19976;-69
2022/03/18 04:46:14;;;;;;;;;;;;;;;14.13;45.64;103169.84;4419152;32;20001;-69
2022/03/18 04:48:40;;;;;;;;;;;;;;;14.05;45.66;103159.72;4416446;32;19990;-69
2022/03/18 04:51:06;;;;;;;;;;;;;;;14.07;45.63;103162.97;4417208;32;20358;-69
2022/03/18 04:53:32;;;;;;;;;;;;;;;14.09;45.69;103169.06;4404238;32;19976;-69
2022/03/18 04:55:57;;;;;;;;;;;;;;;14.11;45.76;103177.94;4418045;32;20248;-69
2022/03/18 04:58:23;;;;;;;;;;;;;;;14.03;46.04;103182.78;4420644;32;19969;-69
2022/03/18 05:00:48;;;;;;;;;;;;;;;13.64;46.33;103190.44;4403514;32;19993;-69
2022/03/18 05:03:15;;;;;;;;;;;;;;;13.78;45.75;103192.50;4415096;32;20386;-69
2022/03/18 05:05:40;;;;;;;;;;;;;;;13.81;45.66;103192.47;4419529;32;19946;-69
2022/03/18 05:08:05;;;;;;;;;;;;;;;13.86;45.75;103185.59;4415793;32;19950;-69
2022/03/18 05:10:31;;;;;;;;;;;;;;;13.82;45.83;103182.78;4417401;32;20501;-70
2022/03/18 05:12:57;;;;;;;;;;;;;;;13.84;45.99;103188.06;4419391;32;20007;-70
2022/03/18 05:15:23;;;;;;;;;;;;;;;13.59;46.55;103198.47;4417584;32;20424;-70
2022/03/18 05:17:50;;;;;;;;;;;;;;;13.53;46.48;103186.75;4418635;32;19973;-70
2022/03/18 05:20:17;;;;;;;;;;;;;;;13.67;46.35;103200.97;4416413;32;20015;-70
2022/03/18 05:22:42;;;;;;;;;;;;;;;13.66;46.27;103196.47;4416516;32;19961;-70
2022/03/18 05:25:08;;;;;;;;;;;;;;;13.60;46.38;103192.44;4417205;32;19954;-70
2022/03/18 05:27:37;;;;;;;;;;;;;;;13.36;46.60;103192.37;4417691;32;20377;-70
2022/03/18 05:30:03;;;;;;;;;;;;;;;13.62;46.21;103189.19;4420645;32;20010;-70
2022/03/18 05:32:29;;;;;;;;;;;;;;;13.56;46.34;103191.63;4416747;32;19957;-70
2022/03/18 05:34:55;;;;;;;;;;;;;;;13.68;46.38;103193.25;4404375;32;19979;-70
2022/03/18 05:37:21;;;;;;;;;;;;;;;13.58;46.52;103202.53;4418739;32;19974;-70
2022/03/18 05:39:48;;;;;;;;;;;;;;;13.44;46.83;103211.00;4416534;32;19967;-70
2022/03/18 05:42:13;;;;;;;;;;;;;;;13.66;46.14;103213.47;4420031;32;20399;-70
2022/03/18 05:44:38;;;;;;;;;;;;;;;13.55;46.20;103212.66;4421159;32;19992;-70
2022/03/18 05:47:04;;;;;;;;;;;;;;;13.60;46.40;103209.41;4416615;32;20421;-70
2022/03/18 05:49:30;;;;;;;;;;;;;;;13.62;46.45;103223.16;4412313;32;19997;-70
2022/03/18 05:51:55;;;;;;;;;;;;;;;13.57;46.32;103227.19;4416233;32;19973;-70
2022/03/18 05:54:21;;;;;;;;;;;;;;;13.48;46.30;103232.44;4418572;32;20001;-70
2022/03/18 05:56:54;;;;;;;;;;;;;;;13.61;45.83;103238.53;4417418;32;20004;-70
2022/03/18 05:59:21;;;;;;;;;;;;;;;13.50;46.31;103237.69;4417068;32;20986;-69
2022/03/18 06:01:46;;;;;;;;;;;;;;;13.53;45.87;103220.72;4415752;32;19953;-70
2022/03/18 06:04:14;;;;;;;;;;;;;;;13.51;46.01;103222.31;4416796;32;19984;-70
2022/03/18 06:06:40;;;;;;;;;;;;;;;13.53;46.16;103242.56;4415948;32;19985;-70
2022/03/18 06:11:51;;;;;;;;;;;;;;;13.30;46.37;103245.69;4414090;32;19990;-69
2022/03/18 06:14:18;;;;;;;;;;;;;;;13.14;46.73;103247.22;4417174;32;20319;-70
2022/03/18 06:16:45;;;;;;;;;;;;;;;13.29;46.46;103243.25;4415423;32;20424;-69
2022/03/18 06:19:11;;;;;;;;;;;;;;;13.17;46.32;103246.44;4414341;32;19989;-69
2022/03/18 06:21:37;;;;;;;;;;;;;;;13.34;46.22;103255.00;4419003;32;19953;-69
2022/03/18 06:24:02;;;;;;;;;;;;;;;13.31;46.53;103255.78;4415579;32;20025;-69
2022/03/18 06:26:31;;;;;;;;;;;;;;;13.44;46.22;103267.56;4421091;32;19996;-70
2022/03/18 06:28:56;;;;;;;;;;;;;;;13.37;46.44;103268.34;4415683;32;19997;-70
2022/03/18 06:31:22;;;;;;;;;;;;;;;13.11;46.38;103264.97;4416450;32;19965;-70
2022/03/18 06:33:47;;;;;;;;;;;;;;;13.14;46.84;103267.00;4417373;32;19953;-69
2022/03/18 06:36:14;;;;;;;;;;;;;;;13.31;46.58;103267.09;4412621;32;20065;-69
2022/03/18 06:38:40;;;;;;;;;;;;;;;13.37;46.36;103268.34;4417433;32;19997;-70
2022/03/18 06:41:06;;;;;;;;;;;;;;;13.32;46.50;103288.50;4416491;32;20007;-70
2022/03/18 06:43:31;;;;;;;;;;;;;;;13.28;46.51;103281.22;4419620;32;19965;-70
2022/03/18 06:45:57;;;;;;;;;;;;;;;13.46;46.11;103294.25;4414437;32;19993;-70
2022/03/18 06:48:22;;;;;;;;;;;;;;;13.29;46.17;103294.97;4419927;32;20406;-70
2022/03/18 06:50:49;;;;;;;;;;;;;;;13.31;46.40;103303.88;4418086;32;19969;-69
2022/03/18 06:53:14;;;;;;;;;;;;;;;13.66;45.73;103308.91;4419962;32;20428;-70
2022/03/18 06:55:40;;;;;;;;;;;;;;;13.68;45.68;103314.94;4417351;32;19964;-70
2022/03/18 06:58:05;;;;;;;;;;;;;;;13.81;45.39;103321.91;4415581;32;19992;-70
2022/03/18 07:00:31;;;;;;;;;;;;;;;13.75;45.36;103323.50;4418155;32;20040;-70
2022/03/18 07:02:57;;;;;;;;;;;;;;;13.86;45.25;103327.16;4417497;32;20001;-70
2022/03/18 07:05:23;;;;;;;;;;;;;;;14.06;45.26;103340.56;4422602;32;21123;-70
2022/03/18 07:07:48;;;;;;;;;;;;;;;14.09;44.97;103347.47;4417625;32;19958;-70
2022/03/18 07:10:14;;;;;;;;;;;;;;;14.25;45.02;103352.78;4421170;32;19963;-70
2022/03/18 07:12:40;;;;;;;;;;;;;;;14.22;45.13;103350.72;4422453;32;19981;-70
2022/03/18 07:15:06;;;;;;;;;;;;;;;14.33;45.02;103351.59;4420376;32;20012;-70
2022/03/18 07:18:03;;;;;;;;;;;;;;;14.40;44.80;103360.94;4422643;32;19988;-70
2022/03/18 07:20:17;;;;;;;;;;;;;;;14.46;44.23;103353.66;4418491;32;20013;-70
2022/03/18 07:22:43;;;;;;;;;;;;;;;14.64;44.17;103362.16;4422239;32;20291;-70
2022/03/18 07:25:09;;;;;;;;;;;;;;;14.72;43.95;103360.94;4419741;32;19949;-70
2022/03/18 07:27:36;;;;;;;;;;;;;;;14.80;43.84;103359.75;4421855;32;20412;-70
2022/03/18 07:30:04;;;;;;;;;;;;;;;14.95;44.04;103364.19;4415642;32;19958;-70
2022/03/18 07:32:30;;;;;;;;;;;;;;;14.99;44.29;103368.66;4415270;32;20025;-70
2022/03/18 07:34:55;;;;;;;;;;;;;;;15.17;44.17;103375.13;4420735;32;19997;-70
2022/03/18 07:37:21;;;;;;;;;;;;;;;15.30;44.22;103373.47;4420476;32;19960;-70
2022/03/18 07:39:46;;;;;;;;;;;;;;;15.42;44.03;103377.94;4417774;32;20054;-70
2022/03/18 07:42:13;;;;;;;;;;;;;;;15.46;43.98;103382.41;4412309;32;20219;-70
2022/03/18 07:44:38;;;;;;;;;;;;;;;15.69;43.71;103384.78;4417498;32;19970;-70
2022/03/18 07:47:04;;;;;;;;;;;;;;;15.83;42.91;103381.88;4413911;32;20326;-70
2022/03/18 07:49:30;;;;;;;;;;;;;;;16.07;42.62;103386.66;4413082;32;19993;-69
2022/03/18 07:51:55;;;;;;;;;;;;;;;16.21;42.63;103386.59;4413105;32;20007;-70
2022/03/18 07:54:21;;;;;;;;;;;;;;;16.30;42.47;103391.81;4407078;32;20007;-70
2022/03/18 07:56:47;;;;;;;;;;;;;;;16.45;42.39;103388.50;4415563;32;19977;-70
2022/03/18 07:59:12;;;;;;;;;;;;;;;16.39;42.46;103387.31;4412515;32;19981;-70
2022/03/18 08:01:39;;;;;;;;;;;;;;;16.65;41.95;103394.44;4411813;32;20232;-70
2022/03/18 08:04:06;;;;;;;;;;;;;;;16.80;nan;103402.47;4414442;32;20019;-70
2022/03/18 08:06:32;;;;;;;;;;;;;;;16.84;41.29;103405.31;4416483;32;20273;-70
2022/03/18 08:08:58;;;;;;;;;;;;;;;16.95;41.17;103403.16;4413489;32;20320;-70
2022/03/18 08:11:24;;;;;;;;;;;;;;;16.86;40.55;103400.00;4410448;32;19969;-70
2022/03/18 08:13:50;;;;;;;;;;;;;;;16.52;41.33;103397.00;4414249;32;19961;-70
2022/03/18 08:16:16;;;;;;;;;;;;;;;17.05;40.81;103403.09;4406512;32;19986;-70
2022/03/18 08:18:42;;;;;;;;;;;;;;;17.03;40.99;103416.91;4413303;32;20232;-70
2022/03/18 08:21:09;;;;;;;;;;;;;;;17.26;41.31;103425.66;4411101;32;20005;-70
2022/03/18 08:23:35;;;;;;;;;;;;;;;17.43;40.84;103421.84;4407862;32;20581;-70
2022/03/18 08:26:01;;;;;;;;;;;;;;;17.77;40.41;103421.94;4411731;32;20074;-70
2022/03/18 08:28:27;;;;;;;;;;;;;;;18.05;39.93;103417.91;4409278;32;20107;-70
2022/03/18 08:30:53;;;;;;;;;;;;;;;18.21;39.32;103430.34;4410359;32;20300;-70
2022/03/18 08:33:19;;;;;;;;;;;;;;;18.32;39.21;103433.06;4407483;32;20322;-70
2022/03/18 08:35:45;;;;;;;;;;;;;;;18.69;38.65;103439.47;4408369;32;20023;-70
2022/03/18 08:38:11;;;;;;;;;;;;;;;19.14;38.38;103442.81;4403994;32;20020;-70
2022/03/18 08:40:37;;;;;;;;;;;;;;;19.47;38.25;103434.13;4408933;32;20008;-70
2022/03/18 08:43:04;;;;;;;;;;;;;;;19.85;36.54;103439.53;4412701;32;20001;-70
2022/03/18 08:45:32;;;;;;;;;;;;;;;20.24;35.96;103446.09;4411951;32;19981;-71
2022/03/18 08:47:57;;;;;;;;;;;;;;;20.67;35.50;103448.78;4410575;32;20033;-71
2022/03/18 08:50:24;;;;;;;;;;;;;;;21.00;35.07;103445.59;4411210;32;20091;-73
2022/03/18 08:52:51;;;;;;;;;;;;;;;21.22;34.52;103446.66;4411302;32;20018;-72
2022/03/18 08:55:16;;;;;;;;;;;;;;;21.51;34.09;103452.47;4414798;32;19996;-72
2022/03/18 08:57:42;;;;;;;;;;;;;;;21.73;33.66;103456.34;4416037;32;20108;-71
2022/03/18 09:00:18;;;;;;;;;;;;;;;21.79;32.99;103454.59;4410812;32;19985;-72
2022/03/18 09:02:45;;;;;;;;;;;;;;;22.06;33.20;103455.00;4411069;32;20013;-71
2022/03/18 09:05:11;;;;;;;;;;;;;;;22.40;32.97;103455.22;4409399;32;20080;-71
2022/03/18 09:07:37;;;;;;;;;;;;;;;22.81;32.65;103468.75;4411239;32;19993;-73
2022/03/18 09:10:04;;;;;;;;;;;;;;;23.00;31.80;103479.22;4408552;32;19957;-73
2022/03/18 09:12:29;;;;;;;;;;;;;;;23.19;31.63;103478.16;4411593;32;20509;-73
2022/03/18 09:14:55;;;;;;;;;;;;;;;23.53;31.03;103478.25;4411433;32;19984;-73
2022/03/18 09:17:20;;;;;;;;;;;;;;;23.81;30.85;103479.34;4412512;32;20015;-73
2022/03/18 09:19:46;;;;;;;;;;;;;;;23.62;30.92;103481.22;4413804;32;20075;-73
2022/03/18 09:22:13;;;;;;;;;;;;;;;23.83;30.70;103482.56;4410835;32;20015;-73
2022/03/18 09:24:39;;;;;;;;;;;;;;;23.71;30.87;103486.28;4410909;32;21178;-72
2022/03/18 09:27:05;;;;;;;;;;;;;;;23.81;30.50;103491.66;4411668;32;20012;-73
2022/03/18 09:29:31;;;;;;;;;;;;;;;24.15;29.99;103485.91;4410171;32;20012;-73
2022/03/18 09:31:56;;;;;;;;;;;;;;;24.44;29.53;103488.47;4411350;32;20015;-74
2022/03/18 09:34:24;;;;;;;;;;;;;;;24.67;29.38;103496.66;4412360;32;19997;-73
2022/03/18 09:36:52;;;;;;;;;;;;;;;23.98;30.44;103498.03;4408186;32;20957;-72
2022/03/18 09:39:17;;;;;;;;;;;;;;;24.40;29.92;103491.53;4409087;32;20362;-72
2022/03/18 09:41:43;;;;;;;;;;;;;;;24.57;29.18;103484.25;4410526;32;19961;-73
2022/03/18 09:44:10;;;;;;;;;;;;;;;24.90;29.21;103493.25;4408037;32;20046;-74
2022/03/18 09:46:36;;;;;;;;;;;;;;;25.34;28.56;103497.63;4409730;32;20004;-73
2022/03/18 09:49:02;;;;;;;;;;;;;;;25.41;28.35;103497.34;4410560;32;19997;-71
2022/03/18 09:51:28;;;;;;;;;;;;;;;25.90;28.00;103500.94;4410208;32;19996;-72
2022/03/18 09:53:53;;;;;;;;;;;;;;;25.91;27.93;103493.06;4395237;32;19983;-71
2022/03/18 09:56:21;;;;;;;;;;;;;;;26.13;27.76;103508.97;4405725;32;20035;-72
2022/03/18 09:58:48;;;;;;;;;;;;;;;26.45;27.31;103525.63;4402087;32;20103;-72
2022/03/18 10:01:13;;;;;;;;;;;;;;;26.59;27.05;103515.50;4407808;32;20105;-72
2022/03/18 10:03:40;;;;;;;;;;;;;;;26.63;27.11;103507.50;4395187;32;20015;-73
2022/03/18 10:06:06;;;;;;;;;;;;;;;26.88;26.67;103512.88;4410910;32;20076;-72
2022/03/18 10:11:14;;;;;;;;;;;;;;;27.39;25.64;103530.22;3942346;32;15838446;-73
2022/03/18 10:13:56;;;;;;;;;;;;;;;27.39;25.64;103530.22;4418420;32;20442;-73
2022/03/18 10:16:42;;;;;;;;;;;;;;;27.30;25.67;103533.94;4417393;32;19993;-73
2022/03/18 10:19:09;;;;;;;;;;;;;;;27.60;25.41;103541.50;4416586;32;19997;-73
2022/03/18 10:21:49;;;;;;;;;;;;;;;27.44;25.72;103541.91;4401074;32;20013;-73
2022/03/18 10:24:14;;;;;;;;;;;;;;;27.47;25.68;103529.34;4417459;32;20019;-73
2022/03/18 10:26:42;;;;;;;;;;;;;;;28.17;24.77;103539.34;4405706;32;20397;-73
2022/03/18 10:29:11;;;;;;;;;;;;;;;28.53;24.32;103539.03;4417508;32;19970;-74
2022/03/18 10:31:39;;;;;;;;;;;;;;;28.55;24.25;103533.53;4414895;32;20056;-73
2022/03/18 10:37:08;;;;;;;;;;;;;;;28.38;24.38;103527.38;4419654;32;19989;-73
2022/03/18 10:39:35;;;;;;;;;;;;;;;28.51;23.90;103536.66;4422528;32;19971;-72
2022/03/18 10:42:03;;;;;;;;;;;;;;;28.87;23.66;103539.13;4418958;32;20002;-73
2022/03/18 10:44:48;;;;;;;;;;;;;;;29.08;23.26;103534.22;4419725;32;20020;-73
2022/03/18 10:47:34;;;;;;;;;;;;;;;29.52;22.57;103528.34;4418608;32;20073;-73
2022/03/18 10:50:21;;;;;;;;;;;;;;;29.62;22.58;103539.34;4420616;32;20404;-73
2022/03/18 10:53:26;;;;;;;;;;;;;;;29.46;22.63;103542.78;4364401;32;20257;-73
2022/03/18 10:56:10;;;;;;;;;;;;;;;29.69;22.17;103530.19;4364491;32;19985;-73
2022/03/18 10:58:54;;;;;;;;;;;;;;;29.77;22.23;103547.97;4362656;32;20243;-73
2022/03/18 11:01:39;;;;;;;;;;;;;;;29.68;22.43;103534.41;4358943;32;20025;-73
2022/03/18 11:04:24;;;;;;;;;;;;;;;30.38;21.73;103537.97;4362758;32;20010;-73
2022/03/18 11:07:41;;;;;;;;;;;;;;;30.42;21.49;103538.53;4362866;32;19996;-73
2022/03/18 11:13:17;;;;;;;;;;;;;;;31.15;20.95;103537.91;4361838;32;19973;-73
2022/03/18 11:16:02;;;;;;;;;;;;;;;30.60;21.38;103527.38;4364070;32;20008;-73
2022/03/18 11:18:47;;;;;;;;;;;;;;;30.34;21.26;103537.41;4414331;32;20303;-73
2022/03/18 11:21:39;;;;;;;;;;;;;;;30.26;21.56;103534.13;4412659;32;20008;-74
2022/03/18 11:24:23;;;;;;;;;;;;;;;29.66;22.00;103551.53;4411112;32;20808;-74
2022/03/18 11:27:08;;;;;;;;;;;;;;;29.68;22.13;103543.12;4409584;32;19969;-74
2022/03/18 11:30:11;;;;;;;;;;;;;;;29.70;22.40;103537.59;4410504;32;20000;-74
2022/03/18 11:38:25;;;;;;;;;;;;;;;30.27;21.82;103546.53;3957791;31;15719208;-74
2022/03/18 11:41:10;;;;;;;;;;;;;;;30.27;21.82;103546.53;4437902;32;20025;-74
2022/03/18 11:43:55;;;;;;;;;;;;;;;29.77;22.19;103530.56;4439244;32;20053;-75
2022/03/18 11:46:40;;;;;;;;;;;;;;;30.04;22.00;103533.03;4442308;32;20391;-75
2022/03/18 11:49:31;;;;;;;;;;;;;;;29.73;22.20;103533.66;4441753;32;19967;-75
2022/03/18 11:52:16;;;;;;;;;;;;;;;29.73;22.46;103532.91;4440114;32;20052;-75
2022/03/18 11:55:10;;;;;;;;;;;;;;;30.04;22.23;103530.12;4439868;32;19993;-75
2022/03/18 11:57:54;;;;;;;;;;;;;;;30.41;21.70;103531.94;4439542;32;20098;-74
2022/03/18 12:03:21;;;;;;;;;;;;;;;32.43;19.98;103538.91;3946842;32;15727467;-75
2022/03/18 12:06:05;;;;;;;;;;;;;;;32.43;19.98;103538.91;4421287;32;20006;-75
2022/03/18 12:14:01;;;;;;;;;;;;;;;32.78;19.66;103525.97;3946819;32;15730654;-74
2022/03/18 12:16:45;;;;;;;;;;;;;;;32.78;19.66;103525.97;4424865;32;20422;-74
2022/03/18 12:19:29;;;;;;;;;;;;;;;33.05;19.27;103531.84;4426201;32;20029;-74
2022/03/18 12:22:15;;;;;;;;;;;;;;;33.06;19.26;103539.28;4424875;32;20127;-74
2022/03/18 12:24:58;;;;;;;;;;;;;;;33.31;18.96;103522.81;4424739;32;19999;-74
2022/03/18 12:27:44;;;;;;;;;;;;;;;32.48;19.67;103523.56;4424576;32;20015;-74
2022/03/18 12:30:29;;;;;;;;;;;;;;;32.68;19.64;103520.38;4426156;32;19986;-74
2022/03/18 12:33:13;;;;;;;;;;;;;;;31.84;20.43;103529.41;4423467;32;20052;-74
2022/03/18 12:35:58;;;;;;;;;;;;;;;32.63;19.66;103520.41;4422855;32;20072;-74
2022/03/18 12:38:46;;;;;;;;;;;;;;;32.54;19.58;103518.53;4423527;32;20797;-74
2022/03/18 12:41:17;;;;;;;;;;;;;;;33.33;19.41;103514.28;4424694;32;19961;-72
2022/03/18 12:43:45;;;;;;;;;;;;;;;32.98;19.25;103506.12;4425378;32;21098;-72
2022/03/18 12:46:12;;;;;;;;;;;;;;;32.63;19.86;103505.81;4426222;32;20048;-73
2022/03/18 12:48:47;;;;;;;;;;;;;;;32.03;20.22;103509.38;4423240;32;19996;-73
2022/03/18 12:51:13;;;;;;;;;;;;;;;32.34;20.04;103500.47;4422470;32;20005;-73
2022/03/18 12:53:46;;;;;;;;;;;;;;;33.20;19.34;103503.19;4424851;32;20011;-73
2022/03/18 12:56:16;;;;;;;;;;;;;;;33.44;19.16;103502.62;4424856;32;20042;-72
2022/03/18 12:58:42;;;;;;;;;;;;;;;32.56;19.51;103500.50;4422032;32;19985;-73
2022/03/18 13:01:11;;;;;;;;;;;;;;;32.46;19.69;103490.44;4422584;32;20075;-71
2022/03/18 13:03:44;;;;;;;;;;;;;;;31.81;20.12;103488.88;4423000;32;20540;-72
2022/03/18 13:06:31;;;;;;;;;;;;;;;31.94;20.33;103484.16;4425112;32;19984;-73
2022/03/18 13:09:08;;;;;;;;;;;;;;;31.94;20.45;103487.06;4423048;32;20336;-72
2022/03/18 13:11:35;;;;;;;;;;;;;;;31.94;20.28;103483.38;4421822;32;19958;-71
2022/03/18 13:14:05;;;;;;;;;;;;;;;31.92;20.32;103481.00;4425341;32;19961;-71
2022/03/18 13:16:36;;;;;;;;;;;;;;;32.41;20.12;103482.47;4408416;32;20007;-72
2022/03/18 13:19:04;;;;;;;;;;;;;;;32.03;20.27;103475.19;4416979;32;20032;-72
2022/03/18 13:21:39;;;;;;;;;;;;;;;31.08;20.58;103486.84;4421992;32;20021;-72